sensor_id;sensor_type;location;lat;lon;timestamp;temperature;humidity
44477;DHT22;30180;44.788;10.366;2023-06-05T00:01:06;22.10;74.70
44477;DHT22;30180;44.788;10.366;2023-06-05T00:03:38;22.10;74.70
44477;DHT22;30180;44.788;10.366;2023-06-05T00:06:07;22.10;74.70
44477;DHT22;30180;44.788;10.366;2023-06-05T00:08:35;22.00;74.60
44477;DHT22;30180;44.788;10.366;2023-06-05T00:11:03;22.10;74.70
44477;DHT22;30180;44.788;10.366;2023-06-05T00:13:31;22.10;74.70
44477;DHT22;30180;44.788;10.366;2023-06-05T00:16:00;22.10;74.70
44477;DHT22;30180;44.788;10.366;2023-06-05T00:18:30;22.10;74.70
44477;DHT22;30180;44.788;10.366;2023-06-05T00:21:00;22.00;74.60
44477;DHT22;30180;44.788;10.366;2023-06-05T00:23:30;22.10;74.70
44477;DHT22;30180;44.788;10.366;2023-06-05T00:25:59;22.00;74.60
44477;DHT22;30180;44.788;10.366;2023-06-05T00:28:27;22.00;74.60
44477;DHT22;30180;44.788;10.366;2023-06-05T00:30:55;22.00;74.60
44477;DHT22;30180;44.788;10.366;2023-06-05T00:33:23;22.00;74.60
44477;DHT22;30180;44.788;10.366;2023-06-05T00:35:52;22.00;74.60
44477;DHT22;30180;44.788;10.366;2023-06-05T00:38:21;22.00;74.60
44477;DHT22;30180;44.788;10.366;2023-06-05T00:40:50;22.00;74.60
44477;DHT22;30180;44.788;10.366;2023-06-05T00:43:18;22.00;74.60
44477;DHT22;30180;44.788;10.366;2023-06-05T00:45:46;22.00;74.60
44477;DHT22;30180;44.788;10.366;2023-06-05T00:48:15;22.00;74.60
44477;DHT22;30180;44.788;10.366;2023-06-05T00:50:43;22.00;74.60
44477;DHT22;30180;44.788;10.366;2023-06-05T00:53:12;22.00;74.60
44477;DHT22;30180;44.788;10.366;2023-06-05T00:55:42;22.00;74.60
44477;DHT22;30180;44.788;10.366;2023-06-05T00:58:10;22.00;74.60
44477;DHT22;30180;44.788;10.366;2023-06-05T01:00:38;22.00;74.60
44477;DHT22;30180;44.788;10.366;2023-06-05T01:03:07;22.00;74.60
44477;DHT22;30180;44.788;10.366;2023-06-05T01:05:35;22.00;74.60
44477;DHT22;30180;44.788;10.366;2023-06-05T01:08:04;22.00;75.20
44477;DHT22;30180;44.788;10.366;2023-06-05T01:10:33;22.00;74.60
44477;DHT22;30180;44.788;10.366;2023-06-05T01:13:06;22.00;74.60
44477;DHT22;30180;44.788;10.366;2023-06-05T01:15:38;22.00;74.60
44477;DHT22;30180;44.788;10.366;2023-06-05T01:18:07;22.00;74.60
44477;DHT22;30180;44.788;10.366;2023-06-05T01:20:38;22.00;74.60
44477;DHT22;30180;44.788;10.366;2023-06-05T01:23:08;22.00;74.60
44477;DHT22;30180;44.788;10.366;2023-06-05T01:25:37;22.00;74.60
44477;DHT22;30180;44.788;10.366;2023-06-05T01:28:13;22.00;74.60
44477;DHT22;30180;44.788;10.366;2023-06-05T01:30:48;22.00;74.60
44477;DHT22;30180;44.788;10.366;2023-06-05T01:33:24;22.00;74.60
44477;DHT22;30180;44.788;10.366;2023-06-05T01:35:55;22.00;74.60
44477;DHT22;30180;44.788;10.366;2023-06-05T01:38:25;22.00;74.60
44477;DHT22;30180;44.788;10.366;2023-06-05T01:40:53;22.00;74.60
44477;DHT22;30180;44.788;10.366;2023-06-05T01:43:22;22.00;74.60
44477;DHT22;30180;44.788;10.366;2023-06-05T01:45:51;22.00;74.60
44477;DHT22;30180;44.788;10.366;2023-06-05T01:48:19;22.00;74.60
44477;DHT22;30180;44.788;10.366;2023-06-05T01:50:55;22.00;74.70
44477;DHT22;30180;44.788;10.366;2023-06-05T01:53:24;22.00;74.60
44477;DHT22;30180;44.788;10.366;2023-06-05T01:55:53;22.00;74.60
44477;DHT22;30180;44.788;10.366;2023-06-05T01:58:24;22.00;74.60
44477;DHT22;30180;44.788;10.366;2023-06-05T02:00:53;22.00;74.60
44477;DHT22;30180;44.788;10.366;2023-06-05T02:03:23;22.00;74.60
44477;DHT22;30180;44.788;10.366;2023-06-05T02:05:52;22.00;74.60
44477;DHT22;30180;44.788;10.366;2023-06-05T02:08:21;22.00;74.50
44477;DHT22;30180;44.788;10.366;2023-06-05T02:10:51;22.00;74.60
44477;DHT22;30180;44.788;10.366;2023-06-05T02:13:20;22.00;74.60
44477;DHT22;30180;44.788;10.366;2023-06-05T02:15:49;22.00;74.60
44477;DHT22;30180;44.788;10.366;2023-06-05T02:18:22;22.00;74.60
44477;DHT22;30180;44.788;10.366;2023-06-05T02:20:53;22.00;74.60
44477;DHT22;30180;44.788;10.366;2023-06-05T02:23:23;22.00;74.60
44477;DHT22;30180;44.788;10.366;2023-06-05T02:25:53;22.00;74.50
44477;DHT22;30180;44.788;10.366;2023-06-05T02:28:21;22.00;74.50
44477;DHT22;30180;44.788;10.366;2023-06-05T02:30:49;22.00;74.50
44477;DHT22;30180;44.788;10.366;2023-06-05T02:33:17;22.00;74.50
44477;DHT22;30180;44.788;10.366;2023-06-05T02:35:46;22.00;74.60
44477;DHT22;30180;44.788;10.366;2023-06-05T02:38:14;22.00;74.60
44477;DHT22;30180;44.788;10.366;2023-06-05T02:40:43;22.00;74.60
44477;DHT22;30180;44.788;10.366;2023-06-05T02:43:13;22.00;74.60
44477;DHT22;30180;44.788;10.366;2023-06-05T02:45:42;22.00;74.50
44477;DHT22;30180;44.788;10.366;2023-06-05T02:48:10;22.00;74.50
44477;DHT22;30180;44.788;10.366;2023-06-05T02:50:38;22.00;74.50
44477;DHT22;30180;44.788;10.366;2023-06-05T02:53:06;22.00;74.50
44477;DHT22;30180;44.788;10.366;2023-06-05T02:55:35;22.00;74.50
44477;DHT22;30180;44.788;10.366;2023-06-05T02:58:03;22.00;74.50
44477;DHT22;30180;44.788;10.366;2023-06-05T03:00:33;22.00;74.50
44477;DHT22;30180;44.788;10.366;2023-06-05T03:03:01;22.00;74.50
44477;DHT22;30180;44.788;10.366;2023-06-05T03:05:31;22.00;74.60
44477;DHT22;30180;44.788;10.366;2023-06-05T03:08:00;22.00;74.50
44477;DHT22;30180;44.788;10.366;2023-06-05T03:10:28;22.00;74.50
44477;DHT22;30180;44.788;10.366;2023-06-05T03:12:57;22.00;74.60
44477;DHT22;30180;44.788;10.366;2023-06-05T03:15:25;22.00;74.50
44477;DHT22;30180;44.788;10.366;2023-06-05T03:17:56;21.90;74.50
44477;DHT22;30180;44.788;10.366;2023-06-05T03:20:24;22.00;74.50
44477;DHT22;30180;44.788;10.366;2023-06-05T03:22:52;22.00;74.50
44477;DHT22;30180;44.788;10.366;2023-06-05T03:25:23;22.00;74.50
44477;DHT22;30180;44.788;10.366;2023-06-05T03:27:51;21.90;74.50
44477;DHT22;30180;44.788;10.366;2023-06-05T03:30:20;22.00;74.50
44477;DHT22;30180;44.788;10.366;2023-06-05T03:32:48;22.00;74.50
44477;DHT22;30180;44.788;10.366;2023-06-05T03:35:18;21.90;74.50
44477;DHT22;30180;44.788;10.366;2023-06-05T03:37:46;22.00;74.50
44477;DHT22;30180;44.788;10.366;2023-06-05T03:40:14;21.90;74.50
44477;DHT22;30180;44.788;10.366;2023-06-05T03:42:42;21.90;74.50
44477;DHT22;30180;44.788;10.366;2023-06-05T03:45:11;21.90;74.50
44477;DHT22;30180;44.788;10.366;2023-06-05T03:47:40;22.00;74.50
44477;DHT22;30180;44.788;10.366;2023-06-05T03:50:11;21.90;74.50
44477;DHT22;30180;44.788;10.366;2023-06-05T03:52:41;22.00;74.50
44477;DHT22;30180;44.788;10.366;2023-06-05T03:55:09;21.90;74.50
44477;DHT22;30180;44.788;10.366;2023-06-05T03:57:38;21.90;74.50
44477;DHT22;30180;44.788;10.366;2023-06-05T04:00:07;21.90;74.50
44477;DHT22;30180;44.788;10.366;2023-06-05T04:02:37;21.90;74.50
44477;DHT22;30180;44.788;10.366;2023-06-05T04:05:06;22.00;74.50
44477;DHT22;30180;44.788;10.366;2023-06-05T04:07:38;21.90;74.50
44477;DHT22;30180;44.788;10.366;2023-06-05T04:10:09;21.90;74.50
44477;DHT22;30180;44.788;10.366;2023-06-05T04:12:37;21.90;74.50
44477;DHT22;30180;44.788;10.366;2023-06-05T04:15:07;21.90;74.50
44477;DHT22;30180;44.788;10.366;2023-06-05T04:17:37;21.90;74.50
44477;DHT22;30180;44.788;10.366;2023-06-05T04:20:07;21.90;74.50
44477;DHT22;30180;44.788;10.366;2023-06-05T04:22:40;21.90;74.50
44477;DHT22;30180;44.788;10.366;2023-06-05T04:25:10;21.90;74.50
44477;DHT22;30180;44.788;10.366;2023-06-05T04:27:40;21.90;74.50
44477;DHT22;30180;44.788;10.366;2023-06-05T04:30:11;21.90;74.50
44477;DHT22;30180;44.788;10.366;2023-06-05T04:32:40;21.90;74.50
44477;DHT22;30180;44.788;10.366;2023-06-05T04:35:09;21.90;74.50
44477;DHT22;30180;44.788;10.366;2023-06-05T04:37:38;21.90;74.50
44477;DHT22;30180;44.788;10.366;2023-06-05T04:40:07;21.90;74.50
44477;DHT22;30180;44.788;10.366;2023-06-05T04:42:38;21.90;74.50
44477;DHT22;30180;44.788;10.366;2023-06-05T04:45:07;21.90;74.50
44477;DHT22;30180;44.788;10.366;2023-06-05T04:47:36;21.90;74.50
44477;DHT22;30180;44.788;10.366;2023-06-05T04:50:06;21.90;74.50
44477;DHT22;30180;44.788;10.366;2023-06-05T04:52:34;21.90;74.50
44477;DHT22;30180;44.788;10.366;2023-06-05T04:55:07;21.90;75.10
44477;DHT22;30180;44.788;10.366;2023-06-05T04:57:37;21.90;74.50
44477;DHT22;30180;44.788;10.366;2023-06-05T05:00:07;21.90;74.50
44477;DHT22;30180;44.788;10.366;2023-06-05T05:02:37;21.90;74.50
44477;DHT22;30180;44.788;10.366;2023-06-05T05:05:06;21.90;74.50
44477;DHT22;30180;44.788;10.366;2023-06-05T05:07:35;21.90;74.40
44477;DHT22;30180;44.788;10.366;2023-06-05T05:10:04;21.90;74.40
44477;DHT22;30180;44.788;10.366;2023-06-05T05:12:33;21.90;74.40
44477;DHT22;30180;44.788;10.366;2023-06-05T05:15:04;21.90;74.50
44477;DHT22;30180;44.788;10.366;2023-06-05T05:17:33;21.90;74.50
44477;DHT22;30180;44.788;10.366;2023-06-05T05:20:01;21.90;74.50
44477;DHT22;30180;44.788;10.366;2023-06-05T05:22:31;21.90;74.50
44477;DHT22;30180;44.788;10.366;2023-06-05T05:24:59;21.90;74.40
44477;DHT22;30180;44.788;10.366;2023-06-05T05:27:27;21.90;74.50
44477;DHT22;30180;44.788;10.366;2023-06-05T05:29:56;21.90;74.40
44477;DHT22;30180;44.788;10.366;2023-06-05T05:32:25;21.90;74.40
44477;DHT22;30180;44.788;10.366;2023-06-05T05:34:54;21.90;74.50
44477;DHT22;30180;44.788;10.366;2023-06-05T05:37:22;21.90;74.50
44477;DHT22;30180;44.788;10.366;2023-06-05T05:39:52;21.90;74.50
44477;DHT22;30180;44.788;10.366;2023-06-05T05:42:21;21.90;74.50
44477;DHT22;30180;44.788;10.366;2023-06-05T05:44:49;21.90;74.60
44477;DHT22;30180;44.788;10.366;2023-06-05T05:47:17;22.00;74.70
44477;DHT22;30180;44.788;10.366;2023-06-05T05:49:47;22.00;74.70
44477;DHT22;30180;44.788;10.366;2023-06-05T05:52:15;22.00;74.70
44477;DHT22;30180;44.788;10.366;2023-06-05T05:54:47;22.10;74.80
44477;DHT22;30180;44.788;10.366;2023-06-05T05:57:15;22.20;74.80
44477;DHT22;30180;44.788;10.366;2023-06-05T05:59:43;22.20;74.80
44477;DHT22;30180;44.788;10.366;2023-06-05T06:02:12;22.30;74.80
44477;DHT22;30180;44.788;10.366;2023-06-05T06:04:40;22.40;74.80
44477;DHT22;30180;44.788;10.366;2023-06-05T06:07:12;22.40;74.80
44477;DHT22;30180;44.788;10.366;2023-06-05T06:09:40;22.50;74.80
44477;DHT22;30180;44.788;10.366;2023-06-05T06:12:09;22.50;74.70
44477;DHT22;30180;44.788;10.366;2023-06-05T06:14:37;22.50;74.70
44477;DHT22;30180;44.788;10.366;2023-06-05T06:17:06;22.60;74.70
44477;DHT22;30180;44.788;10.366;2023-06-05T06:19:37;22.60;74.70
44477;DHT22;30180;44.788;10.366;2023-06-05T06:22:05;22.60;74.70
44477;DHT22;30180;44.788;10.366;2023-06-05T06:24:41;22.70;74.70
44477;DHT22;30180;44.788;10.366;2023-06-05T06:27:10;22.70;74.70
44477;DHT22;30180;44.788;10.366;2023-06-05T06:29:47;22.70;74.50
44477;DHT22;30180;44.788;10.366;2023-06-05T06:32:17;22.70;74.50
44477;DHT22;30180;44.788;10.366;2023-06-05T06:34:45;22.70;74.50
44477;DHT22;30180;44.788;10.366;2023-06-05T06:37:13;22.70;74.60
44477;DHT22;30180;44.788;10.366;2023-06-05T06:39:44;22.70;74.60
44477;DHT22;30180;44.788;10.366;2023-06-05T06:42:13;22.80;74.60
44477;DHT22;30180;44.788;10.366;2023-06-05T06:44:41;22.80;74.60
44477;DHT22;30180;44.788;10.366;2023-06-05T06:47:09;22.70;74.60
44477;DHT22;30180;44.788;10.366;2023-06-05T06:49:38;22.80;74.70
44477;DHT22;30180;44.788;10.366;2023-06-05T06:52:07;22.80;74.60
44477;DHT22;30180;44.788;10.366;2023-06-05T06:54:37;22.80;74.60
44477;DHT22;30180;44.788;10.366;2023-06-05T06:57:06;22.80;74.50
44477;DHT22;30180;44.788;10.366;2023-06-05T06:59:35;22.80;74.50
44477;DHT22;30180;44.788;10.366;2023-06-05T07:02:09;22.90;74.50
44477;DHT22;30180;44.788;10.366;2023-06-05T07:04:38;22.90;74.50
44477;DHT22;30180;44.788;10.366;2023-06-05T07:07:09;22.90;74.50
44477;DHT22;30180;44.788;10.366;2023-06-05T07:09:38;22.90;74.40
44477;DHT22;30180;44.788;10.366;2023-06-05T07:12:10;22.90;74.40
44477;DHT22;30180;44.788;10.366;2023-06-05T07:14:39;22.90;74.40
44477;DHT22;30180;44.788;10.366;2023-06-05T07:17:07;22.90;74.30
44477;DHT22;30180;44.788;10.366;2023-06-05T07:19:36;22.90;74.40
44477;DHT22;30180;44.788;10.366;2023-06-05T07:22:05;22.90;74.40
44477;DHT22;30180;44.788;10.366;2023-06-05T07:24:34;22.90;74.50
44477;DHT22;30180;44.788;10.366;2023-06-05T07:27:03;23.00;74.50
44477;DHT22;30180;44.788;10.366;2023-06-05T07:29:34;23.00;74.50
44477;DHT22;30180;44.788;10.366;2023-06-05T07:32:03;23.00;74.40
44477;DHT22;30180;44.788;10.366;2023-06-05T07:34:33;23.00;74.30
44477;DHT22;30180;44.788;10.366;2023-06-05T07:37:02;23.00;74.30
44477;DHT22;30180;44.788;10.366;2023-06-05T07:39:30;23.00;74.30
44477;DHT22;30180;44.788;10.366;2023-06-05T07:41:58;23.10;74.50
44477;DHT22;30180;44.788;10.366;2023-06-05T07:44:27;23.10;74.60
44477;DHT22;30180;44.788;10.366;2023-06-05T07:46:56;23.10;74.50
44477;DHT22;30180;44.788;10.366;2023-06-05T07:49:25;23.10;74.50
44477;DHT22;30180;44.788;10.366;2023-06-05T07:51:53;23.10;74.30
44477;DHT22;30180;44.788;10.366;2023-06-05T07:54:22;23.20;74.20
44477;DHT22;30180;44.788;10.366;2023-06-05T07:56:51;23.20;74.20
44477;DHT22;30180;44.788;10.366;2023-06-05T07:59:19;23.20;74.20
44477;DHT22;30180;44.788;10.366;2023-06-05T08:01:52;23.20;74.20
44477;DHT22;30180;44.788;10.366;2023-06-05T08:04:21;23.20;74.20
44477;DHT22;30180;44.788;10.366;2023-06-05T08:06:52;23.20;74.30
44477;DHT22;30180;44.788;10.366;2023-06-05T08:09:20;23.20;74.10
44477;DHT22;30180;44.788;10.366;2023-06-05T08:11:48;23.20;74.20
44477;DHT22;30180;44.788;10.366;2023-06-05T08:14:17;23.20;74.10
44477;DHT22;30180;44.788;10.366;2023-06-05T08:16:45;23.20;74.20
44477;DHT22;30180;44.788;10.366;2023-06-05T08:19:14;23.20;74.10
44477;DHT22;30180;44.788;10.366;2023-06-05T08:21:44;23.20;74.20
44477;DHT22;30180;44.788;10.366;2023-06-05T08:24:12;23.20;74.10
44477;DHT22;30180;44.788;10.366;2023-06-05T08:26:40;23.30;74.10
44477;DHT22;30180;44.788;10.366;2023-06-05T08:29:08;23.20;74.00
44477;DHT22;30180;44.788;10.366;2023-06-05T08:31:39;23.20;74.00
44477;DHT22;30180;44.788;10.366;2023-06-05T08:34:07;23.30;74.00
44477;DHT22;30180;44.788;10.366;2023-06-05T08:36:36;23.30;74.00
44477;DHT22;30180;44.788;10.366;2023-06-05T08:39:05;23.30;73.90
44477;DHT22;30180;44.788;10.366;2023-06-05T08:41:34;23.20;73.80
44477;DHT22;30180;44.788;10.366;2023-06-05T08:44:04;23.20;73.90
44477;DHT22;30180;44.788;10.366;2023-06-05T08:46:35;23.20;74.00
44477;DHT22;30180;44.788;10.366;2023-06-05T08:49:10;23.20;74.00
44477;DHT22;30180;44.788;10.366;2023-06-05T08:51:39;23.30;74.10
44477;DHT22;30180;44.788;10.366;2023-06-05T08:54:10;23.30;74.00
44477;DHT22;30180;44.788;10.366;2023-06-05T08:56:42;23.30;74.00
44477;DHT22;30180;44.788;10.366;2023-06-05T08:59:11;23.30;73.90
44477;DHT22;30180;44.788;10.366;2023-06-05T09:01:42;23.30;73.80
44477;DHT22;30180;44.788;10.366;2023-06-05T09:04:11;23.40;73.80
44477;DHT22;30180;44.788;10.366;2023-06-05T09:06:44;23.30;73.80
44477;DHT22;30180;44.788;10.366;2023-06-05T09:09:14;23.40;74.00
44477;DHT22;30180;44.788;10.366;2023-06-05T09:11:42;23.40;73.90
44477;DHT22;30180;44.788;10.366;2023-06-05T09:14:11;23.40;73.80
44477;DHT22;30180;44.788;10.366;2023-06-05T09:16:40;23.40;73.70
44477;DHT22;30180;44.788;10.366;2023-06-05T09:19:11;23.40;73.70
44477;DHT22;30180;44.788;10.366;2023-06-05T09:21:39;23.40;73.60
44477;DHT22;30180;44.788;10.366;2023-06-05T09:24:15;23.40;73.60
44477;DHT22;30180;44.788;10.366;2023-06-05T09:26:54;23.40;73.70
44477;DHT22;30180;44.788;10.366;2023-06-05T09:29:25;23.40;73.80
44477;DHT22;30180;44.788;10.366;2023-06-05T09:31:56;23.40;73.70
44477;DHT22;30180;44.788;10.366;2023-06-05T09:34:29;23.50;73.80
44477;DHT22;30180;44.788;10.366;2023-06-05T09:36:59;23.50;73.60
44477;DHT22;30180;44.788;10.366;2023-06-05T09:39:30;23.40;73.50
44477;DHT22;30180;44.788;10.366;2023-06-05T09:41:59;23.40;73.60
44477;DHT22;30180;44.788;10.366;2023-06-05T09:44:29;23.50;73.60
44477;DHT22;30180;44.788;10.366;2023-06-05T09:46:59;23.40;73.50
44477;DHT22;30180;44.788;10.366;2023-06-05T09:49:29;23.40;73.60
44477;DHT22;30180;44.788;10.366;2023-06-05T09:51:59;23.40;73.40
44477;DHT22;30180;44.788;10.366;2023-06-05T09:54:29;23.40;73.60
44477;DHT22;30180;44.788;10.366;2023-06-05T09:56:58;23.40;73.60
44477;DHT22;30180;44.788;10.366;2023-06-05T09:59:28;23.40;73.50
44477;DHT22;30180;44.788;10.366;2023-06-05T10:02:01;23.40;73.40
44477;DHT22;30180;44.788;10.366;2023-06-05T10:04:36;23.40;73.50
44477;DHT22;30180;44.788;10.366;2023-06-05T10:07:06;23.40;73.50
44477;DHT22;30180;44.788;10.366;2023-06-05T10:09:36;23.50;73.50
44477;DHT22;30180;44.788;10.366;2023-06-05T10:12:05;23.40;73.50
44477;DHT22;30180;44.788;10.366;2023-06-05T10:14:36;23.50;73.50
44477;DHT22;30180;44.788;10.366;2023-06-05T10:17:04;23.40;73.30
44477;DHT22;30180;44.788;10.366;2023-06-05T10:19:32;23.50;74.00
44477;DHT22;30180;44.788;10.366;2023-06-05T10:22:01;23.50;73.40
44477;DHT22;30180;44.788;10.366;2023-06-05T10:24:32;23.50;74.00
44477;DHT22;30180;44.788;10.366;2023-06-05T10:27:33;23.50;73.40
44477;DHT22;30180;44.788;10.366;2023-06-05T10:30:26;23.50;73.40
44477;DHT22;30180;44.788;10.366;2023-06-05T10:33:06;23.50;73.30
44477;DHT22;30180;44.788;10.366;2023-06-05T10:35:50;23.40;73.30
44477;DHT22;30180;44.788;10.366;2023-06-05T10:38:21;23.50;73.40
44477;DHT22;30180;44.788;10.366;2023-06-05T10:40:53;23.50;73.30
44477;DHT22;30180;44.788;10.366;2023-06-05T10:43:30;23.40;73.30
44477;DHT22;30180;44.788;10.366;2023-06-05T10:45:59;23.50;73.20
44477;DHT22;30180;44.788;10.366;2023-06-05T10:49:05;23.50;73.10
44477;DHT22;30180;44.788;10.366;2023-06-05T10:51:39;23.50;73.20
44477;DHT22;30180;44.788;10.366;2023-06-05T10:54:10;23.50;73.30
44477;DHT22;30180;44.788;10.366;2023-06-05T10:56:59;23.50;73.30
44477;DHT22;30180;44.788;10.366;2023-06-05T10:59:31;23.50;73.30
44477;DHT22;30180;44.788;10.366;2023-06-05T11:02:22;23.40;73.20
44477;DHT22;30180;44.788;10.366;2023-06-05T11:05:07;23.50;73.20
44477;DHT22;30180;44.788;10.366;2023-06-05T11:07:37;23.50;73.10
44477;DHT22;30180;44.788;10.366;2023-06-05T11:10:14;23.50;73.00
44477;DHT22;30180;44.788;10.366;2023-06-05T11:12:58;23.50;73.00
44477;DHT22;30180;44.788;10.366;2023-06-05T11:15:42;23.50;72.90
44477;DHT22;30180;44.788;10.366;2023-06-05T11:18:30;23.50;72.90
44477;DHT22;30180;44.788;10.366;2023-06-05T11:20:59;23.50;72.80
44477;DHT22;30180;44.788;10.366;2023-06-05T11:23:28;23.50;72.80
44477;DHT22;30180;44.788;10.366;2023-06-05T11:28:49;23.50;72.70
44477;DHT22;30180;44.788;10.366;2023-06-05T11:31:29;23.50;73.30
44477;DHT22;30180;44.788;10.366;2023-06-05T11:34:00;23.50;72.70
44477;DHT22;30180;44.788;10.366;2023-06-05T11:36:29;23.50;72.70
44477;DHT22;30180;44.788;10.366;2023-06-05T11:38:57;23.50;72.70
44477;DHT22;30180;44.788;10.366;2023-06-05T11:41:26;23.50;72.60
44477;DHT22;30180;44.788;10.366;2023-06-05T11:43:54;23.50;72.70
44477;DHT22;30180;44.788;10.366;2023-06-05T11:46:37;23.50;72.70
44477;DHT22;30180;44.788;10.366;2023-06-05T11:49:06;23.40;72.70
44477;DHT22;30180;44.788;10.366;2023-06-05T11:51:35;23.50;72.60
44477;DHT22;30180;44.788;10.366;2023-06-05T11:54:05;23.40;72.50
44477;DHT22;30180;44.788;10.366;2023-06-05T11:56:41;23.40;72.60
44477;DHT22;30180;44.788;10.366;2023-06-05T11:59:15;23.40;72.70
44477;DHT22;30180;44.788;10.366;2023-06-05T12:01:45;23.40;72.70
44477;DHT22;30180;44.788;10.366;2023-06-05T12:04:14;23.40;72.70
44477;DHT22;30180;44.788;10.366;2023-06-05T12:06:45;23.40;72.70
44477;DHT22;30180;44.788;10.366;2023-06-05T12:09:14;23.40;72.70
44477;DHT22;30180;44.788;10.366;2023-06-05T12:11:44;23.40;72.80
44477;DHT22;30180;44.788;10.366;2023-06-05T12:14:13;23.40;72.80
44477;DHT22;30180;44.788;10.366;2023-06-05T12:16:56;23.30;72.80
44477;DHT22;30180;44.788;10.366;2023-06-05T12:19:27;23.30;72.90
44477;DHT22;30180;44.788;10.366;2023-06-05T12:22:02;23.40;72.90
44477;DHT22;30180;44.788;10.366;2023-06-05T12:24:32;23.40;72.90
44477;DHT22;30180;44.788;10.366;2023-06-05T12:27:02;23.40;72.90
44477;DHT22;30180;44.788;10.366;2023-06-05T12:29:33;23.40;72.90
44477;DHT22;30180;44.788;10.366;2023-06-05T12:32:19;23.40;72.90
44477;DHT22;30180;44.788;10.366;2023-06-05T12:34:49;23.40;72.90
44477;DHT22;30180;44.788;10.366;2023-06-05T12:37:31;23.40;73.00
44477;DHT22;30180;44.788;10.366;2023-06-05T12:40:02;23.40;72.90
44477;DHT22;30180;44.788;10.366;2023-06-05T12:42:36;23.50;73.00
44477;DHT22;30180;44.788;10.366;2023-06-05T12:45:06;23.50;72.90
44477;DHT22;30180;44.788;10.366;2023-06-05T12:47:37;23.40;72.50
44477;DHT22;30180;44.788;10.366;2023-06-05T12:50:07;23.40;72.40
44477;DHT22;30180;44.788;10.366;2023-06-05T12:52:39;23.30;72.30
44477;DHT22;30180;44.788;10.366;2023-06-05T12:55:08;23.20;72.30
44477;DHT22;30180;44.788;10.366;2023-06-05T12:57:38;23.20;72.30
44477;DHT22;30180;44.788;10.366;2023-06-05T13:00:07;23.10;72.40
44477;DHT22;30180;44.788;10.366;2023-06-05T13:02:43;23.10;72.40
44477;DHT22;30180;44.788;10.366;2023-06-05T13:05:13;23.00;72.40
44477;DHT22;30180;44.788;10.366;2023-06-05T13:07:41;23.00;72.50
44477;DHT22;30180;44.788;10.366;2023-06-05T13:10:10;22.90;72.40
44477;DHT22;30180;44.788;10.366;2023-06-05T13:12:39;22.90;72.50
44477;DHT22;30180;44.788;10.366;2023-06-05T13:15:09;22.80;72.40
44477;DHT22;30180;44.788;10.366;2023-06-05T13:17:38;22.80;72.50
44477;DHT22;30180;44.788;10.366;2023-06-05T13:20:08;22.80;72.50
44477;DHT22;30180;44.788;10.366;2023-06-05T13:22:38;22.70;72.50
44477;DHT22;30180;44.788;10.366;2023-06-05T13:25:08;22.70;72.60
44477;DHT22;30180;44.788;10.366;2023-06-05T13:27:36;22.70;72.60
44477;DHT22;30180;44.788;10.366;2023-06-05T13:30:06;22.70;72.60
44477;DHT22;30180;44.788;10.366;2023-06-05T13:32:35;22.70;72.60
44477;DHT22;30180;44.788;10.366;2023-06-05T13:35:08;22.60;72.60
44477;DHT22;30180;44.788;10.366;2023-06-05T13:37:36;22.60;72.70
44477;DHT22;30180;44.788;10.366;2023-06-05T13:40:05;22.60;72.70
44477;DHT22;30180;44.788;10.366;2023-06-05T13:42:37;22.60;72.70
44477;DHT22;30180;44.788;10.366;2023-06-05T13:45:06;22.60;72.70
44477;DHT22;30180;44.788;10.366;2023-06-05T13:47:35;22.60;72.80
44477;DHT22;30180;44.788;10.366;2023-06-05T13:50:04;22.50;72.80
44477;DHT22;30180;44.788;10.366;2023-06-05T13:52:34;22.50;72.80
44477;DHT22;30180;44.788;10.366;2023-06-05T13:55:03;22.50;72.90
44477;DHT22;30180;44.788;10.366;2023-06-05T13:57:32;22.50;73.00
44477;DHT22;30180;44.788;10.366;2023-06-05T14:00:00;22.60;73.20
44477;DHT22;30180;44.788;10.366;2023-06-05T14:02:29;22.60;73.30
44477;DHT22;30180;44.788;10.366;2023-06-05T14:04:57;22.70;73.30
44477;DHT22;30180;44.788;10.366;2023-06-05T14:07:26;22.70;73.20
44477;DHT22;30180;44.788;10.366;2023-06-05T14:10:15;22.80;73.30
44477;DHT22;30180;44.788;10.366;2023-06-05T14:12:43;22.80;73.20
44477;DHT22;30180;44.788;10.366;2023-06-05T14:15:11;22.90;73.20
44477;DHT22;30180;44.788;10.366;2023-06-05T14:17:40;22.90;73.20
44477;DHT22;30180;44.788;10.366;2023-06-05T14:20:08;23.00;73.20
44477;DHT22;30180;44.788;10.366;2023-06-05T14:22:37;23.00;73.30
44477;DHT22;30180;44.788;10.366;2023-06-05T14:25:07;23.00;73.20
44477;DHT22;30180;44.788;10.366;2023-06-05T14:27:37;23.00;73.10
44477;DHT22;30180;44.788;10.366;2023-06-05T14:30:06;23.10;73.20
44477;DHT22;30180;44.788;10.366;2023-06-05T14:32:35;23.10;73.20
44477;DHT22;30180;44.788;10.366;2023-06-05T14:35:04;23.10;73.20
44477;DHT22;30180;44.788;10.366;2023-06-05T14:37:33;23.10;73.10
44477;DHT22;30180;44.788;10.366;2023-06-05T14:40:01;23.10;73.10
44477;DHT22;30180;44.788;10.366;2023-06-05T14:42:31;23.10;73.20
44477;DHT22;30180;44.788;10.366;2023-06-05T14:45:00;23.10;73.20
44477;DHT22;30180;44.788;10.366;2023-06-05T14:47:29;23.10;73.20
44477;DHT22;30180;44.788;10.366;2023-06-05T14:49:57;23.10;73.20
44477;DHT22;30180;44.788;10.366;2023-06-05T14:52:25;23.10;73.10
44477;DHT22;30180;44.788;10.366;2023-06-05T14:54:54;23.10;73.10
44477;DHT22;30180;44.788;10.366;2023-06-05T14:57:33;23.10;73.10
44477;DHT22;30180;44.788;10.366;2023-06-05T15:00:03;23.10;73.00
44477;DHT22;30180;44.788;10.366;2023-06-05T15:02:32;23.10;73.00
44477;DHT22;30180;44.788;10.366;2023-06-05T15:05:00;23.10;72.90
44477;DHT22;30180;44.788;10.366;2023-06-05T15:07:35;23.10;72.90
44477;DHT22;30180;44.788;10.366;2023-06-05T15:10:05;23.10;72.90
44477;DHT22;30180;44.788;10.366;2023-06-05T15:12:35;23.10;72.90
44477;DHT22;30180;44.788;10.366;2023-06-05T15:15:07;23.10;72.80
44477;DHT22;30180;44.788;10.366;2023-06-05T15:17:38;23.10;72.80
44477;DHT22;30180;44.788;10.366;2023-06-05T15:20:07;23.10;72.80
44477;DHT22;30180;44.788;10.366;2023-06-05T15:22:36;23.10;72.80
44477;DHT22;30180;44.788;10.366;2023-06-05T15:25:05;23.10;72.80
44477;DHT22;30180;44.788;10.366;2023-06-05T15:27:33;23.10;72.80
44477;DHT22;30180;44.788;10.366;2023-06-05T15:30:02;23.10;72.80
44477;DHT22;30180;44.788;10.366;2023-06-05T15:32:32;23.10;72.80
44477;DHT22;30180;44.788;10.366;2023-06-05T15:35:00;23.10;72.70
44477;DHT22;30180;44.788;10.366;2023-06-05T15:37:28;23.10;72.70